createdAt,value
2019-05-16T00:00:08.294Z,7.9
2019-05-16T00:01:09.174Z,8
2019-05-16T00:02:08.198Z,8
2019-05-16T00:03:07.986Z,8
2019-05-16T00:04:08.657Z,8
2019-05-16T00:05:08.359Z,8
2019-05-16T00:06:08.496Z,8
2019-05-16T00:07:08.016Z,8
2019-05-16T00:08:11.814Z,8
2019-05-16T00:09:07.963Z,8
2019-05-16T00:10:08.337Z,8
2019-05-16T00:11:08.545Z,8
2019-05-16T00:12:08.703Z,8
2019-05-16T00:13:08.476Z,8
2019-05-16T00:14:08.313Z,8
2019-05-16T00:15:08.956Z,8
2019-05-16T00:16:07.941Z,7.9
2019-05-16T00:17:08.309Z,7.9
2019-05-16T00:18:08.685Z,7.9
2019-05-16T00:19:08.992Z,7.9
2019-05-16T00:20:09.179Z,7.9
2019-05-16T00:21:08.681Z,7.9
2019-05-16T00:22:08.671Z,7.9
2019-05-16T00:23:07.889Z,7.9
2019-05-16T00:24:08.195Z,7.9
2019-05-16T00:25:08.609Z,7.9
2019-05-16T00:26:07.806Z,7.9
2019-05-16T00:27:08.277Z,7.9
2019-05-16T00:28:08.910Z,7.9
2019-05-16T00:29:07.973Z,7.9
2019-05-16T00:30:08.810Z,7.9
2019-05-16T00:31:08.571Z,7.9
2019-05-16T00:32:08.540Z,7.9
2019-05-16T00:33:08.247Z,7.9
2019-05-16T00:34:09.538Z,7.9
2019-05-16T00:35:09.117Z,7.9
2019-05-16T00:36:09.105Z,7.9
2019-05-16T00:37:08.613Z,7.9
2019-05-16T00:38:08.739Z,7.9
2019-05-16T00:39:08.440Z,8
2019-05-16T00:40:08.279Z,7.8
2019-05-16T00:41:08.536Z,8
2019-05-16T00:42:08.750Z,8
2019-05-16T00:43:08.227Z,8
2019-05-16T00:44:08.484Z,8
2019-05-16T00:45:09.088Z,8
2019-05-16T00:46:08.386Z,8
2019-05-16T00:47:08.626Z,8
2019-05-16T00:48:08.936Z,8
2019-05-16T00:49:09.297Z,8
2019-05-16T00:50:08.800Z,8.1
2019-05-16T00:51:08.334Z,8.1
2019-05-16T00:52:08.378Z,8.1
2019-05-16T00:53:09.089Z,8
2019-05-16T00:54:08.443Z,8
2019-05-16T00:55:08.665Z,8
2019-05-16T00:56:08.518Z,8
2019-05-16T00:57:08.722Z,8
2019-05-16T00:58:08.870Z,8
2019-05-16T00:59:08.654Z,8
2019-05-16T01:00:08.686Z,7.9
2019-05-16T01:01:08.765Z,8
2019-05-16T01:02:09.044Z,7.9
2019-05-16T01:03:08.795Z,7.9
2019-05-16T01:04:08.797Z,7.9
2019-05-16T01:05:08.900Z,7.9
2019-05-16T01:06:16.451Z,7.9
2019-05-16T01:07:08.886Z,7.9
2019-05-16T01:08:08.959Z,7.9
2019-05-16T01:09:08.982Z,7.8
2019-05-16T01:10:09.329Z,7.9
2019-05-16T01:11:09.023Z,7.9
2019-05-16T01:12:09.015Z,7.9
2019-05-16T01:13:09.088Z,7.9
2019-05-16T01:14:09.083Z,8
2019-05-16T01:15:09.105Z,8
2019-05-16T01:16:09.122Z,8
2019-05-16T01:17:09.165Z,8
2019-05-16T01:18:09.208Z,8
2019-05-16T01:19:09.188Z,8
2019-05-16T01:20:09.217Z,8
2019-05-16T01:21:09.252Z,8
2019-05-16T01:22:09.272Z,8
2019-05-16T01:23:09.319Z,8
2019-05-16T01:24:09.297Z,8
2019-05-16T01:25:09.758Z,8
2019-05-16T01:26:09.351Z,8
2019-05-16T01:27:09.383Z,8
2019-05-16T01:28:09.405Z,8
2019-05-16T01:29:11.706Z,8
2019-05-16T01:30:09.449Z,8
2019-05-16T01:31:09.414Z,8
2019-05-16T01:32:09.434Z,8
2019-05-16T01:33:09.669Z,8
2019-05-16T01:34:09.475Z,8
2019-05-16T01:35:09.454Z,8
2019-05-16T01:36:09.487Z,8
2019-05-16T01:37:09.484Z,8
2019-05-16T01:38:09.479Z,8
2019-05-16T01:39:09.504Z,8
2019-05-16T01:40:09.506Z,8
2019-05-16T01:41:09.518Z,8
2019-05-16T01:42:09.526Z,8
2019-05-16T01:43:09.538Z,8
2019-05-16T01:44:09.558Z,8
2019-05-16T01:45:09.547Z,8
2019-05-16T01:46:09.555Z,8
2019-05-16T01:47:09.560Z,8
2019-05-16T01:48:09.646Z,8
2019-05-16T01:49:09.630Z,8
2019-05-16T01:50:09.590Z,8
2019-05-16T01:51:09.615Z,8
2019-05-16T01:52:09.628Z,8
2019-05-16T01:53:09.602Z,8
2019-05-16T01:54:09.643Z,8
2019-05-16T01:55:09.652Z,8
2019-05-16T01:56:09.620Z,8.1
2019-05-16T01:57:09.656Z,8
2019-05-16T01:58:09.709Z,8
2019-05-16T01:59:09.749Z,8
2019-05-16T02:00:09.773Z,8
2019-05-16T02:01:12.875Z,8
2019-05-16T02:02:09.846Z,8
2019-05-16T02:03:09.918Z,7.9
2019-05-16T02:04:12.153Z,7.9
2019-05-16T02:05:10.002Z,8
2019-05-16T02:06:10.066Z,7.9
2019-05-16T02:07:10.072Z,7.9
2019-05-16T02:08:10.166Z,7.9
2019-05-16T02:09:11.418Z,7.9
2019-05-16T02:10:10.274Z,7.9
2019-05-16T02:11:10.327Z,7.8
2019-05-16T02:12:11.373Z,7.8
2019-05-16T02:13:10.356Z,7.8
2019-05-16T02:14:10.473Z,7.8
2019-05-16T02:15:10.485Z,7.8
2019-05-16T02:16:10.562Z,7.7
2019-05-16T02:17:11.178Z,7.7
2019-05-16T02:18:10.629Z,7.7
2019-05-16T02:19:10.708Z,7.7
2019-05-16T02:20:10.723Z,7.7
2019-05-16T02:21:10.755Z,7.7
2019-05-16T02:22:10.777Z,7.7
2019-05-16T02:23:10.865Z,7.7
2019-05-16T02:24:10.886Z,7.7
2019-05-16T02:25:10.845Z,7.7
2019-05-16T02:26:10.926Z,7.6
2019-05-16T02:27:10.968Z,7.6
2019-05-16T02:28:11.038Z,7.6
2019-05-16T02:29:13.621Z,7.6
2019-05-16T02:30:12.335Z,7.6
2019-05-16T02:31:11.864Z,7.5
2019-05-16T02:32:11.709Z,7.5
2019-05-16T02:33:11.657Z,7.5
2019-05-16T02:34:11.995Z,7.5
2019-05-16T02:35:12.092Z,7.5
2019-05-16T02:36:11.321Z,7.5
2019-05-16T02:37:23.346Z,7.5
2019-05-16T02:38:11.582Z,7.5
2019-05-16T02:39:11.570Z,7.4
2019-05-16T02:40:12.182Z,7.4
2019-05-16T02:41:11.555Z,7.4
2019-05-16T02:42:12.199Z,7.5
2019-05-16T02:43:12.423Z,7.4
2019-05-16T02:44:12.181Z,7.6
2019-05-16T02:45:11.658Z,7.5
2019-05-16T02:46:12.169Z,7.6
2019-05-16T02:47:11.755Z,7.5
2019-05-16T02:48:11.776Z,7.6
2019-05-16T02:49:11.955Z,7.6
2019-05-16T02:50:12.652Z,7.7
2019-05-16T02:51:11.948Z,7.7
2019-05-16T02:52:11.950Z,7.7
2019-05-16T02:53:12.745Z,7.6
2019-05-16T02:54:12.045Z,7.6
2019-05-16T02:55:12.273Z,7.6
2019-05-16T02:56:12.481Z,7.6
2019-05-16T02:57:12.054Z,7.6
2019-05-16T02:58:12.098Z,7.6
2019-05-16T02:59:12.210Z,7.6
2019-05-16T03:00:12.705Z,7.6
2019-05-16T03:01:12.180Z,7.6
2019-05-16T03:02:12.227Z,7.6
2019-05-16T03:03:12.336Z,7.5
2019-05-16T03:04:12.330Z,7.5
2019-05-16T03:05:12.813Z,7.5
2019-05-16T03:06:12.353Z,7.6
2019-05-16T03:07:30.207Z,7.5
2019-05-16T03:08:14.899Z,7.6
2019-05-16T03:09:12.528Z,7.5
2019-05-16T03:10:12.518Z,7.5
2019-05-16T03:11:12.546Z,7.6
2019-05-16T03:12:12.571Z,7.6
2019-05-16T03:13:12.602Z,7.6
2019-05-16T03:14:12.651Z,7.6
2019-05-16T03:15:12.741Z,7.6
2019-05-16T03:16:12.679Z,7.7
2019-05-16T03:17:12.774Z,7.7
2019-05-16T03:18:12.748Z,7.7
2019-05-16T03:19:12.816Z,7.7
2019-05-16T03:20:12.814Z,7.7
2019-05-16T03:21:12.832Z,7.7
2019-05-16T03:22:13.185Z,7.7
2019-05-16T03:23:12.896Z,7.7
2019-05-16T03:24:12.940Z,7.7
2019-05-16T03:25:12.902Z,7.6
2019-05-16T03:26:12.969Z,7.6
2019-05-16T03:27:12.962Z,7.6
2019-05-16T03:28:13.029Z,7.6
2019-05-16T03:29:13.016Z,7.5
2019-05-16T03:30:16.070Z,7.5
2019-05-16T03:31:14.710Z,7.5
2019-05-16T03:32:14.221Z,7.5
2019-05-16T03:33:16.764Z,7.5
2019-05-16T03:34:15.798Z,7.5
2019-05-16T03:35:15.113Z,7.5
2019-05-16T03:36:15.057Z,7.4
2019-05-16T03:37:14.485Z,7.4
2019-05-16T03:38:13.101Z,7.5
2019-05-16T03:39:13.097Z,7.5
2019-05-16T03:40:13.122Z,7.5
2019-05-16T03:41:13.111Z,7.5
2019-05-16T03:42:13.168Z,7.5
2019-05-16T03:43:13.132Z,7.5
2019-05-16T03:44:13.134Z,7.6
2019-05-16T03:45:13.142Z,7.6
2019-05-16T03:46:13.175Z,7.6
2019-05-16T03:47:13.201Z,7.6
2019-05-16T03:48:13.206Z,7.5
2019-05-16T03:49:13.191Z,7.6
2019-05-16T03:50:13.190Z,7.5
2019-05-16T03:51:13.168Z,7.6
2019-05-16T03:52:13.232Z,7.6
2019-05-16T03:53:13.205Z,7.6
2019-05-16T03:54:15.477Z,7.6
2019-05-16T03:55:13.311Z,7.6
2019-05-16T03:56:13.404Z,7.6
2019-05-16T03:57:13.453Z,7.6
2019-05-16T03:58:13.452Z,7.6
2019-05-16T03:59:13.544Z,7.6
2019-05-16T04:00:16.075Z,7.6
2019-05-16T04:01:13.651Z,7.6
2019-05-16T04:02:13.769Z,7.5
2019-05-16T04:03:13.776Z,7.5
2019-05-16T04:04:13.846Z,7.5
2019-05-16T04:05:13.849Z,7.4
2019-05-16T04:06:13.887Z,7.3
2019-05-16T04:07:13.964Z,7.3
2019-05-16T04:08:19.171Z,7.4
2019-05-16T04:09:15.005Z,7.4
2019-05-16T04:10:13.972Z,7.4
2019-05-16T04:11:14.006Z,7.4
2019-05-16T04:12:14.079Z,7.4
2019-05-16T04:13:14.088Z,7.4
2019-05-16T04:14:14.091Z,7.3
2019-05-16T04:15:14.131Z,7.4
2019-05-16T04:16:14.129Z,7.3
2019-05-16T04:17:14.183Z,7.3
2019-05-16T04:18:14.234Z,7.4
2019-05-16T04:19:14.235Z,7.4
2019-05-16T04:20:14.307Z,7.4
2019-05-16T04:21:17.398Z,7.5
2019-05-16T04:22:14.414Z,7.4
2019-05-16T04:23:14.447Z,7.4
2019-05-16T04:24:14.463Z,7.4
2019-05-16T04:25:14.485Z,7.4
2019-05-16T04:26:14.528Z,7.4
2019-05-16T04:27:14.569Z,7.4
2019-05-16T04:28:14.640Z,7.4
2019-05-16T04:29:14.709Z,7.4
2019-05-16T04:30:14.705Z,7.4
2019-05-16T04:31:14.755Z,7.4
2019-05-16T04:32:20.004Z,7.4
2019-05-16T04:33:14.776Z,7.3
2019-05-16T04:34:14.776Z,7.3
2019-05-16T04:35:14.817Z,7.3
2019-05-16T04:36:14.847Z,7.3
2019-05-16T04:37:14.895Z,7.3
2019-05-16T04:38:30.136Z,7.3
2019-05-16T04:39:15.008Z,7.3
2019-05-16T04:40:15.035Z,7.3
2019-05-16T04:41:15.084Z,7.2
2019-05-16T04:42:15.085Z,7.2
2019-05-16T04:43:15.131Z,7.2
2019-05-16T04:44:15.162Z,7.2
2019-05-16T04:45:15.241Z,7.3
2019-05-16T04:46:15.209Z,7.3
2019-05-16T04:47:15.247Z,7.3
2019-05-16T04:48:15.313Z,7.2
2019-05-16T04:49:15.298Z,7.1
2019-05-16T04:50:15.316Z,7
2019-05-16T04:51:15.523Z,7.1
2019-05-16T04:52:15.386Z,7.1
2019-05-16T04:53:15.431Z,7.1
2019-05-16T04:54:15.408Z,7
2019-05-16T04:55:15.449Z,7
2019-05-16T04:56:15.447Z,7
2019-05-16T04:57:15.493Z,7
2019-05-16T04:58:15.537Z,7
2019-05-16T04:59:16.776Z,7
2019-05-16T05:00:15.618Z,7
2019-05-16T05:01:15.652Z,7.1
2019-05-16T05:02:15.677Z,7.1
2019-05-16T05:03:15.644Z,7.1
2019-05-16T05:04:15.826Z,7.1
2019-05-16T05:05:15.730Z,7.2
2019-05-16T05:06:15.757Z,7.2
2019-05-16T05:07:15.796Z,7.2
2019-05-16T05:08:15.796Z,7.2
2019-05-16T05:09:15.899Z,7.2
2019-05-16T05:10:15.866Z,7.2
2019-05-16T05:11:15.905Z,7.2
2019-05-16T05:12:15.892Z,7.2
2019-05-16T05:13:15.928Z,7.2
2019-05-16T05:14:15.968Z,7.3
2019-05-16T05:15:15.948Z,7.3
2019-05-16T05:16:15.990Z,7.3
2019-05-16T05:17:16.034Z,7.3
2019-05-16T05:18:16.067Z,7.4
2019-05-16T05:19:16.116Z,7.4
2019-05-16T05:20:16.118Z,7.4
2019-05-16T05:21:16.075Z,7.4
2019-05-16T05:22:19.862Z,7.4
2019-05-16T05:23:16.110Z,7.4
2019-05-16T05:24:16.194Z,7.4
2019-05-16T05:25:16.171Z,7.4
2019-05-16T05:26:16.170Z,7.4
2019-05-16T05:27:16.177Z,7.3
2019-05-16T05:28:16.153Z,7.3
2019-05-16T05:29:16.208Z,7.4
2019-05-16T05:30:16.185Z,7.4
2019-05-16T05:31:16.244Z,7.5
2019-05-16T05:32:16.220Z,7.5
2019-05-16T05:33:16.219Z,7.4
2019-05-16T05:34:16.364Z,7.4
2019-05-16T05:35:16.253Z,7.4
2019-05-16T05:36:16.215Z,7.4
2019-05-16T05:37:16.239Z,7.4
2019-05-16T05:38:16.273Z,7.4
2019-05-16T05:39:23.489Z,7.4
2019-05-16T05:40:16.353Z,7.4
2019-05-16T05:41:16.255Z,7.4
2019-05-16T05:42:16.298Z,7.3
2019-05-16T05:43:16.265Z,7.4
2019-05-16T05:44:16.265Z,7.4
2019-05-16T05:45:16.310Z,7.4
2019-05-16T05:46:16.344Z,7.3
2019-05-16T05:47:16.367Z,7.4
2019-05-16T05:48:16.366Z,7.4
2019-05-16T05:49:16.394Z,7.5
2019-05-16T05:50:16.511Z,7.6
2019-05-16T05:51:16.533Z,7.6
2019-05-16T05:52:16.553Z,7.7
2019-05-16T05:53:16.605Z,7.6
2019-05-16T05:54:16.702Z,7.6
2019-05-16T05:55:16.777Z,7.5
2019-05-16T05:56:16.798Z,7.4
2019-05-16T05:57:16.839Z,7.4
2019-05-16T05:58:16.923Z,7.4
2019-05-16T05:59:16.945Z,7.5
2019-05-16T06:00:17.021Z,7.5
2019-05-16T06:01:17.012Z,7.4
2019-05-16T06:02:17.080Z,7.4
2019-05-16T06:03:17.082Z,7.4
2019-05-16T06:04:17.141Z,7.4
2019-05-16T06:05:17.233Z,7.4
2019-05-16T06:06:17.223Z,7.4
2019-05-16T06:07:17.314Z,7.3
2019-05-16T06:08:17.338Z,7.3
2019-05-16T06:09:26.047Z,7.3
2019-05-16T06:10:19.751Z,7.3
2019-05-16T06:11:17.614Z,7.3
2019-05-16T06:12:17.646Z,7.3
2019-05-16T06:13:20.189Z,7.3
2019-05-16T06:14:17.570Z,7.3
2019-05-16T06:15:20.234Z,7.4
2019-05-16T06:16:20.127Z,7.4
2019-05-16T06:17:19.909Z,7.5
2019-05-16T06:18:19.792Z,7.5
2019-05-16T06:19:17.815Z,7.4
2019-05-16T06:20:20.100Z,7.5
2019-05-16T06:21:20.061Z,7.5
2019-05-16T06:22:20.395Z,7.5
2019-05-16T06:23:20.244Z,7.5
2019-05-16T06:24:20.009Z,7.5
2019-05-16T06:25:22.145Z,7.5
2019-05-16T06:26:20.342Z,7.5
2019-05-16T06:27:20.658Z,7.4
2019-05-16T06:28:20.508Z,7.4
2019-05-16T06:29:20.269Z,7.4
2019-05-16T06:30:21.266Z,7.4
2019-05-16T06:31:21.754Z,7.5
2019-05-16T06:32:19.776Z,7.5
2019-05-16T06:33:19.911Z,7.5
2019-05-16T06:34:20.730Z,7.5
2019-05-16T06:35:20.248Z,7.5
2019-05-16T06:36:20.356Z,7.5
2019-05-16T06:37:20.470Z,7.5
2019-05-16T06:38:20.902Z,7.5
2019-05-16T06:39:19.872Z,7.6
2019-05-16T06:40:20.246Z,7.5
2019-05-16T06:41:19.863Z,7.6
2019-05-16T06:42:20.574Z,7.6
2019-05-16T06:43:20.411Z,7.6
2019-05-16T06:44:20.236Z,7.7
2019-05-16T06:45:20.453Z,7.7
2019-05-16T06:46:20.074Z,7.7
2019-05-16T06:47:20.486Z,7.8
2019-05-16T06:48:21.067Z,7.8
2019-05-16T06:49:19.668Z,7.8
2019-05-16T06:50:20.784Z,7.8
2019-05-16T06:51:19.991Z,7.8
2019-05-16T06:52:19.685Z,7.8
2019-05-16T06:53:20.881Z,7.8
2019-05-16T06:54:20.708Z,7.7
2019-05-16T06:55:20.436Z,7.8
2019-05-16T06:56:19.959Z,7.8
2019-05-16T06:57:20.581Z,7.8
2019-05-16T06:58:22.340Z,7.9
2019-05-16T06:59:20.249Z,7.9
2019-05-16T07:00:20.905Z,7.9
2019-05-16T07:01:20.801Z,7.8
2019-05-16T07:02:27.498Z,7.9
2019-05-16T07:03:20.363Z,7.9
2019-05-16T07:04:20.021Z,7.9
2019-05-16T07:05:20.760Z,7.9
2019-05-16T07:06:38.011Z,8
2019-05-16T07:07:20.455Z,8
2019-05-16T07:08:20.385Z,8.1
2019-05-16T07:09:20.604Z,8
2019-05-16T07:10:20.317Z,8
2019-05-16T07:11:20.101Z,7.9
2019-05-16T07:12:20.228Z,7.9
2019-05-16T07:13:19.735Z,7.8
2019-05-16T07:14:22.720Z,7.8
2019-05-16T07:15:20.599Z,7.8
2019-05-16T07:16:20.554Z,7.8
2019-05-16T07:17:20.162Z,7.8
2019-05-16T07:18:20.724Z,7.8
2019-05-16T07:19:20.729Z,7.8
2019-05-16T07:20:20.929Z,7.8
2019-05-16T07:21:20.133Z,7.7
2019-05-16T07:22:20.460Z,7.7
2019-05-16T07:23:20.888Z,7.7
2019-05-16T07:24:19.901Z,7.6
2019-05-16T07:25:20.761Z,7.6
2019-05-16T07:26:20.479Z,7.6
2019-05-16T07:27:21.769Z,7.7
2019-05-16T07:28:20.793Z,7.7
2019-05-16T07:29:20.199Z,7.7
2019-05-16T07:30:19.985Z,7.8
2019-05-16T07:31:22.259Z,7.8
2019-05-16T07:32:19.898Z,7.8
2019-05-16T07:33:20.998Z,7.8
2019-05-16T07:34:20.593Z,7.8
2019-05-16T07:35:20.405Z,7.9
2019-05-16T07:36:20.829Z,7.9
2019-05-16T07:37:20.149Z,7.9
2019-05-16T07:38:20.425Z,7.9
2019-05-16T07:39:19.977Z,8
2019-05-16T07:40:26.398Z,7.9
2019-05-16T07:41:20.499Z,8
2019-05-16T07:42:20.115Z,8
2019-05-16T07:43:20.379Z,8
2019-05-16T07:44:20.810Z,8.1
2019-05-16T07:45:20.467Z,7.9
2019-05-16T07:46:20.769Z,8.1
2019-05-16T07:47:20.406Z,8
2019-05-16T07:48:21.342Z,8
2019-05-16T07:49:20.285Z,8
2019-05-16T07:50:20.524Z,8
2019-05-16T07:51:20.582Z,7.9
2019-05-16T07:52:22.590Z,7.9
2019-05-16T07:53:21.344Z,7.9
2019-05-16T07:54:21.303Z,8
2019-05-16T07:55:21.003Z,8
2019-05-16T07:56:20.699Z,8
2019-05-16T07:57:22.883Z,8
2019-05-16T07:58:22.312Z,8
2019-05-16T07:59:20.681Z,8.2
2019-05-16T08:00:21.762Z,8
2019-05-16T08:01:20.802Z,8.2
2019-05-16T08:02:21.176Z,8.2
2019-05-16T08:03:20.864Z,8.2
2019-05-16T08:04:20.917Z,8.2
2019-05-16T08:05:21.427Z,8.2
2019-05-16T08:06:20.999Z,8.2
2019-05-16T08:07:20.986Z,8.2
2019-05-16T08:08:23.978Z,8.1
2019-05-16T08:09:21.303Z,8
2019-05-16T08:10:36.305Z,7.9
2019-05-16T08:11:23.575Z,7.8
2019-05-16T08:12:25.957Z,7.9
2019-05-16T08:13:21.389Z,7.9
2019-05-16T08:14:21.529Z,7.9
2019-05-16T08:15:21.605Z,7.9
2019-05-16T08:16:21.429Z,7.9
2019-05-16T08:17:21.858Z,8.1
2019-05-16T08:18:21.742Z,8.2
2019-05-16T08:19:25.114Z,8.4
2019-05-16T08:20:22.077Z,8.4
2019-05-16T08:21:21.620Z,8.5
2019-05-16T08:23:22.507Z,8.5
2019-05-16T08:24:21.724Z,8.3
2019-05-16T08:25:21.803Z,8.3
2019-05-16T08:26:22.282Z,8.2
2019-05-16T08:27:21.903Z,8.1
2019-05-16T08:28:22.107Z,8.2
2019-05-16T08:29:22.150Z,8.2
2019-05-16T08:30:22.008Z,8.3
2019-05-16T08:31:22.083Z,8.3
2019-05-16T08:32:22.895Z,8.3
2019-05-16T08:33:22.317Z,8.3
2019-05-16T08:34:22.084Z,8.4
2019-05-16T08:35:22.098Z,8.4
2019-05-16T08:36:22.144Z,8.5
2019-05-16T08:38:22.154Z,8.7
2019-05-16T08:39:22.107Z,8.7
2019-05-16T08:40:22.115Z,8.5
2019-05-16T08:41:22.774Z,8.5
2019-05-16T08:42:22.162Z,8.5
2019-05-16T08:43:22.693Z,8.4
2019-05-16T08:44:22.223Z,8.5
2019-05-16T08:45:22.419Z,8.6
2019-05-16T08:46:22.322Z,8.5
2019-05-16T08:47:22.313Z,8.6
2019-05-16T08:48:23.641Z,8.6
2019-05-16T08:49:22.434Z,8.7
2019-05-16T08:50:06.372Z,8.5
2019-05-16T08:50:22.366Z,8.7
2019-05-16T08:51:22.546Z,8.8
2019-05-16T08:52:22.662Z,8.8
2019-05-16T08:53:22.461Z,8.6
2019-05-16T08:54:22.498Z,8.6
2019-05-16T08:55:22.847Z,8.7
2019-05-16T08:56:22.697Z,8.9
2019-05-16T08:57:27.687Z,8.9
2019-05-16T08:58:23.066Z,8.8
2019-05-16T08:59:22.573Z,8.8
2019-05-16T09:00:22.614Z,8.8
2019-05-16T09:01:22.649Z,8.6
2019-05-16T09:03:22.795Z,8.1
2019-05-16T09:04:24.374Z,8
2019-05-16T09:05:23.010Z,7.9
2019-05-16T09:06:23.191Z,7.6
2019-05-16T09:07:22.955Z,7.6
2019-05-16T09:08:22.735Z,7.8
2019-05-16T09:09:36.294Z,8
2019-05-16T09:10:34.040Z,8.3
2019-05-16T09:11:34.870Z,8.1
2019-05-16T09:12:22.747Z,8.2
2019-05-16T09:13:22.747Z,8.4
2019-05-16T09:14:22.785Z,8.4
2019-05-16T09:15:22.787Z,8.5
2019-05-16T09:16:38.544Z,8.4
2019-05-16T09:17:22.793Z,8.4
2019-05-16T09:18:22.795Z,8.3
2019-05-16T09:18:38.189Z,8.6
2019-05-16T09:19:22.816Z,8.4
2019-05-16T09:20:22.799Z,8.4
2019-05-16T09:21:22.813Z,8.6
2019-05-16T09:22:22.836Z,8.7
2019-05-16T09:23:22.789Z,8.8
2019-05-16T09:24:22.812Z,8.8
2019-05-16T09:25:22.809Z,8.8
2019-05-16T09:26:22.875Z,8.8
2019-05-16T09:27:22.915Z,8.9
2019-05-16T09:28:22.965Z,8.9
2019-05-16T09:29:23.024Z,9
2019-05-16T09:30:23.036Z,9
2019-05-16T09:31:23.071Z,8.6
2019-05-16T09:32:23.191Z,8.5
2019-05-16T09:33:26.739Z,8.3
2019-05-16T09:34:23.226Z,8.3
2019-05-16T09:35:23.223Z,8.3
2019-05-16T09:36:23.290Z,8
2019-05-16T09:37:23.360Z,8.1
2019-05-16T09:38:23.822Z,8.2
2019-05-16T09:39:23.404Z,8.3
2019-05-16T09:40:23.432Z,8.3
2019-05-16T09:41:23.434Z,8.4
2019-05-16T09:42:23.490Z,8.3
2019-05-16T09:43:23.507Z,8.1
2019-05-16T09:44:23.524Z,8
2019-05-16T09:45:23.538Z,8.2
2019-05-16T09:46:23.632Z,8.1
2019-05-16T09:47:23.732Z,8
2019-05-16T09:48:23.655Z,8
2019-05-16T09:49:24.816Z,7.9
2019-05-16T09:50:23.818Z,7.8
2019-05-16T09:51:23.828Z,7.9
2019-05-16T09:52:23.920Z,7.9
2019-05-16T09:53:23.931Z,7.9
2019-05-16T09:54:24.014Z,8.1
2019-05-16T09:55:24.057Z,8.3
2019-05-16T09:56:24.100Z,8.4
2019-05-16T09:57:24.183Z,8.5
2019-05-16T09:58:24.175Z,8.7
2019-05-16T09:59:26.268Z,8.8
2019-05-16T10:00:26.688Z,8.8
2019-05-16T10:01:24.280Z,9
2019-05-16T10:02:27.176Z,9
2019-05-16T10:03:26.860Z,8.6
2019-05-16T10:04:26.643Z,8.5
2019-05-16T10:05:26.599Z,8.6
2019-05-16T10:06:24.537Z,8.7
2019-05-16T10:07:27.975Z,8.8
2019-05-16T10:08:26.696Z,8.8
2019-05-16T10:09:38.372Z,8.9
2019-05-16T10:10:26.243Z,8.8
2019-05-16T10:11:30.174Z,8.8
2019-05-16T10:12:26.276Z,8.8
2019-05-16T10:13:27.261Z,8.6
2019-05-16T10:14:26.825Z,8.3
2019-05-16T10:15:26.937Z,8
2019-05-16T10:16:27.345Z,8
2019-05-16T10:17:27.180Z,7.8
2019-05-16T10:18:27.469Z,7.8
2019-05-16T10:19:27.352Z,8.1
2019-05-16T10:20:27.176Z,8.3
2019-05-16T10:21:27.111Z,8.5
2019-05-16T10:22:27.212Z,8.4
2019-05-16T10:23:25.223Z,8.5
2019-05-16T10:24:26.816Z,8.5
2019-05-16T10:25:27.604Z,8.4
2019-05-16T10:26:27.640Z,8.2
2019-05-16T10:27:26.474Z,7.9
2019-05-16T10:28:27.520Z,7.9
2019-05-16T10:29:27.309Z,8.2
2019-05-16T10:30:26.893Z,8.4
2019-05-16T10:31:38.437Z,8.5
2019-05-16T10:32:27.325Z,8.1
2019-05-16T10:33:27.438Z,8.2
2019-05-16T10:34:26.559Z,8.2
2019-05-16T10:35:28.987Z,8
2019-05-16T10:36:27.896Z,7.9
2019-05-16T10:37:26.830Z,7.5
2019-05-16T10:38:28.340Z,7.5
2019-05-16T10:39:26.735Z,7.9
2019-05-16T10:40:27.369Z,8.2
2019-05-16T10:41:25.725Z,8.2
2019-05-16T10:42:28.858Z,8.1
2019-05-16T10:43:26.430Z,8.2
2019-05-16T10:44:28.021Z,8.1
2019-05-16T10:45:27.269Z,7.9
2019-05-16T10:46:26.894Z,7.4
2019-05-16T10:47:28.675Z,7.4
2019-05-16T10:48:26.936Z,7.7
2019-05-16T10:49:36.654Z,8
2019-05-16T10:50:27.564Z,7.7
2019-05-16T10:51:26.887Z,7.8
2019-05-16T10:52:26.867Z,7.9
2019-05-16T10:53:52.118Z,7.7
2019-05-16T10:54:27.524Z,7.6
2019-05-16T10:55:27.728Z,7.8
2019-05-16T10:56:25.999Z,7.8
2019-05-16T10:57:29.116Z,7.7
2019-05-16T10:58:36.288Z,7.7
2019-05-16T10:59:53.980Z,7.9
2019-05-16T11:00:46.766Z,8.1
2019-05-16T11:01:28.407Z,8.1
2019-05-16T11:02:27.506Z,8.3
2019-05-16T11:03:27.567Z,8.4
2019-05-16T11:04:33.591Z,8.3
2019-05-16T11:05:31.016Z,7.8
2019-05-16T11:06:29.107Z,7.7
2019-05-16T11:07:29.245Z,7.9
2019-05-16T11:08:26.178Z,8.1
2019-05-16T11:09:26.157Z,8.2
2019-05-16T11:10:26.777Z,8.3
2019-05-16T11:11:27.262Z,8.4
2019-05-16T11:12:44.868Z,8
2019-05-16T11:13:27.937Z,7.7
2019-05-16T11:14:28.073Z,7.8
2019-05-16T11:15:27.743Z,8.1
2019-05-16T11:16:27.396Z,8.1
2019-05-16T11:17:27.797Z,7.8
2019-05-16T11:18:27.108Z,7.4
2019-05-16T11:19:28.163Z,7.5
2019-05-16T11:20:26.907Z,7.3
2019-05-16T11:21:26.862Z,7.3
2019-05-16T11:22:29.271Z,7.2
2019-05-16T11:23:28.125Z,7.2
2019-05-16T11:24:28.745Z,7.2
2019-05-16T11:25:31.706Z,7.2
2019-05-16T11:26:27.517Z,7.7
2019-05-16T11:27:26.344Z,7.9
2019-05-16T11:28:26.462Z,8
2019-05-16T11:29:26.360Z,8.2
2019-05-16T11:30:27.962Z,7.7
2019-05-16T11:31:26.760Z,7.4
2019-05-16T11:32:27.042Z,7.3
2019-05-16T11:33:28.078Z,7.3
2019-05-16T11:34:26.817Z,7.7
2019-05-16T11:35:27.323Z,8.1
2019-05-16T11:36:26.951Z,8
2019-05-16T11:37:27.882Z,7.7
2019-05-16T11:38:26.775Z,7.8
2019-05-16T11:39:26.830Z,7.9
2019-05-16T11:40:28.530Z,7.9
2019-05-16T11:41:27.443Z,7.5
2019-05-16T11:42:27.949Z,7.3
2019-05-16T11:43:27.814Z,7.3
2019-05-16T11:44:28.489Z,7.5
2019-05-16T11:45:27.285Z,7.8
2019-05-16T11:46:28.033Z,7.8
2019-05-16T11:47:27.327Z,7.9
2019-05-16T11:48:29.174Z,8
2019-05-16T11:49:29.470Z,7.7
2019-05-16T11:50:28.014Z,7.5
2019-05-16T11:51:27.432Z,7.6
2019-05-16T11:52:27.365Z,7.7
2019-05-16T11:53:28.166Z,7.9
2019-05-16T11:54:27.464Z,7.9
2019-05-16T11:55:33.239Z,7.9
2019-05-16T11:56:27.629Z,8.1
2019-05-16T11:57:27.571Z,8.1
2019-05-16T11:58:27.529Z,8.1
2019-05-16T11:59:27.588Z,7.8
2019-05-16T12:00:30.404Z,7.6
2019-05-16T12:01:27.792Z,7.7
2019-05-16T12:02:28.096Z,8
2019-05-16T12:03:28.287Z,8.2
2019-05-16T12:04:28.133Z,8.2
2019-05-16T12:05:27.840Z,8.3
2019-05-16T12:06:27.875Z,8.5
2019-05-16T12:07:33.214Z,8.7
2019-05-16T12:08:27.974Z,8.3
2019-05-16T12:09:33.154Z,8.2
2019-05-16T12:10:28.070Z,8.3
2019-05-16T12:11:28.101Z,8.6
2019-05-16T12:12:28.204Z,8.7
2019-05-16T12:13:32.559Z,8.6
2019-05-16T12:14:28.233Z,8.3
2019-05-16T12:15:29.290Z,8.1
2019-05-16T12:16:28.263Z,8.2
2019-05-16T12:17:28.342Z,8.3
2019-05-16T12:18:28.319Z,8
2019-05-16T12:19:33.645Z,8.2
2019-05-16T12:20:28.402Z,8.5
2019-05-16T12:21:28.422Z,8.5
2019-05-16T12:22:28.499Z,8.4
2019-05-16T12:23:28.511Z,8.2
2019-05-16T12:24:37.010Z,8.2
2019-05-16T12:25:28.578Z,8.3
2019-05-16T12:26:28.640Z,8.5
2019-05-16T12:27:32.151Z,8.4
2019-05-16T12:28:28.662Z,8.5
2019-05-16T12:29:30.950Z,8.4
2019-05-16T12:30:28.734Z,8.5
2019-05-16T12:31:32.311Z,8.7
2019-05-16T12:32:28.821Z,8.9
2019-05-16T12:33:28.870Z,8.6
2019-05-16T12:34:28.845Z,8.6
2019-05-16T12:35:28.880Z,8.7
2019-05-16T12:36:31.390Z,8.8
2019-05-16T12:37:28.999Z,8.6
2019-05-16T12:38:31.224Z,8
2019-05-16T12:39:29.049Z,7.5
2019-05-16T12:40:28.983Z,7.4
2019-05-16T12:41:29.012Z,7.5
2019-05-16T12:42:29.086Z,7.7
2019-05-16T12:43:44.532Z,7.9
2019-05-16T12:44:29.109Z,8.1
2019-05-16T12:45:29.110Z,7.6
2019-05-16T12:46:29.152Z,7.5
2019-05-16T12:47:29.182Z,7.2
2019-05-16T12:48:29.157Z,7.1
2019-05-16T12:49:29.216Z,7.2
2019-05-16T12:50:29.242Z,7.6
2019-05-16T12:51:29.270Z,7.9
2019-05-16T12:52:29.308Z,8
2019-05-16T12:53:32.287Z,8.2
2019-05-16T12:54:29.281Z,8.4
2019-05-16T12:55:29.318Z,8.5
2019-05-16T12:56:29.334Z,8.3
2019-05-16T12:57:30.968Z,7.6
2019-05-16T12:58:37.652Z,7.5
2019-05-16T12:59:29.347Z,7.8
2019-05-16T13:00:29.364Z,8
2019-05-16T13:01:33.931Z,8.2
2019-05-16T13:02:29.437Z,7.9
2019-05-16T13:03:29.420Z,7.9
2019-05-16T13:04:29.446Z,8
2019-05-16T13:05:29.445Z,8.2
2019-05-16T13:06:29.454Z,8.4
2019-05-16T13:07:29.461Z,8
2019-05-16T13:08:29.458Z,7.9
2019-05-16T13:09:29.465Z,8.1
2019-05-16T13:10:29.483Z,8.2
2019-05-16T13:11:29.466Z,8.3
2019-05-16T13:12:29.500Z,8
2019-05-16T13:13:29.472Z,7.9
2019-05-16T13:14:30.494Z,7.5
2019-05-16T13:15:29.495Z,7.3
2019-05-16T13:16:29.495Z,7.4
2019-05-16T13:17:29.534Z,7.7
2019-05-16T13:18:29.497Z,7.9
2019-05-16T13:19:32.747Z,7.7
2019-05-16T13:20:29.600Z,7.4
2019-05-16T13:21:29.627Z,7.3
2019-05-16T13:22:32.082Z,7.6
2019-05-16T13:23:29.720Z,7.9
2019-05-16T13:24:29.805Z,8.1
2019-05-16T13:25:29.838Z,8.4
2019-05-16T13:26:29.930Z,8.5
2019-05-16T13:27:29.974Z,8.3
2019-05-16T13:28:29.975Z,8.2
2019-05-16T13:29:29.978Z,8.1
2019-05-16T13:30:30.052Z,7.9
2019-05-16T13:31:30.105Z,7.9
2019-05-16T13:32:30.182Z,7.6
2019-05-16T13:33:30.202Z,7.7
2019-05-16T13:34:30.276Z,8
2019-05-16T13:35:30.310Z,8.2
2019-05-16T13:36:30.391Z,8.2
2019-05-16T13:37:30.441Z,8.3
2019-05-16T13:38:30.457Z,8.5
2019-05-16T13:39:30.532Z,8.6
2019-05-16T13:40:30.558Z,8.8
2019-05-16T13:41:33.708Z,8.9
2019-05-16T13:42:30.719Z,8.7
2019-05-16T13:43:30.695Z,8.7
2019-05-16T13:44:30.713Z,8.6
2019-05-16T13:45:30.774Z,8.1
2019-05-16T13:46:30.809Z,7.6
2019-05-16T13:47:30.822Z,7.6
2019-05-16T13:48:30.845Z,7.9
2019-05-16T13:49:30.877Z,7.8
2019-05-16T13:50:30.940Z,7.7
2019-05-16T13:51:31.005Z,7.7
2019-05-16T13:52:31.115Z,7.7
2019-05-16T13:53:31.069Z,7.6
2019-05-16T13:54:31.067Z,7.4
2019-05-16T13:55:31.117Z,7.4
2019-05-16T13:56:31.171Z,7.4